Time;durP1;ratioP1;P1;durP2;ratioP2;P2;SDS_P1;SDS_P2;PMS_P1;PMS_P2;Temp;Humidity;BMP_temperature;BMP_pressure;BME280_temperature;BME280_humidity;BME280_pressure;Samples;Min_cycle;Max_cycle;Signal;HPM_P1;HPM_P2
2021/12/28 00:01:54;;;;;;;11.45;8.88;;;3.80;99.90;;;;;;5055102;28;20453;-81
2021/12/28 00:04:21;;;;;;;12.00;8.73;;;3.90;99.90;;;;;;5072840;28;20094;-82
2021/12/28 00:06:48;;;;;;;11.85;9.13;;;3.90;99.90;;;;;;5054641;28;20058;-81
2021/12/28 00:09:14;;;;;;;12.20;9.30;;;3.90;99.90;;;;;;5054908;28;20131;-81
2021/12/28 00:11:41;;;;;;;13.35;8.88;;;3.90;99.90;;;;;;5054860;28;20436;-81
2021/12/28 00:14:09;;;;;;;10.88;8.63;;;4.00;99.90;;;;;;5072808;28;20049;-81
2021/12/28 00:17:58;;;;;;;11.73;8.20;;;4.00;99.90;;;;;;5054574;28;20135;-81
2021/12/28 00:19:22;;;;;;;12.23;8.85;;;4.00;99.90;;;;;;5072433;28;20095;-81
2021/12/28 00:21:49;;;;;;;15.38;9.95;;;4.00;99.90;;;;;;5054847;28;20132;-81
2021/12/28 00:24:16;;;;;;;12.43;9.32;;;4.00;99.90;;;;;;5072532;28;20397;-82
2021/12/28 00:26:42;;;;;;;15.07;9.30;;;4.10;99.90;;;;;;5054663;28;20133;-81
2021/12/28 00:29:09;;;;;;;14.63;9.73;;;4.10;99.90;;;;;;5054710;28;20106;-81
2021/12/28 00:31:36;;;;;;;14.10;10.05;;;4.10;99.90;;;;;;5054340;28;20123;-81
2021/12/28 00:34:03;;;;;;;12.95;10.13;;;4.20;99.90;;;;;;5072317;28;20272;-81
2021/12/28 00:36:30;;;;;;;13.93;10.13;;;4.30;99.90;;;;;;5054363;28;20052;-81
2021/12/28 00:38:56;;;;;;;14.35;10.15;;;4.30;99.90;;;;;;5054428;28;20139;-81
2021/12/28 00:41:23;;;;;;;13.07;9.93;;;4.30;99.90;;;;;;5071979;28;20132;-81
2021/12/28 00:43:50;;;;;;;14.15;10.50;;;4.40;99.90;;;;;;5054348;28;20087;-81
2021/12/28 00:46:16;;;;;;;11.85;8.73;;;4.40;99.90;;;;;;5071969;28;20200;-81
2021/12/28 00:48:43;;;;;;;13.60;9.88;;;4.40;99.90;;;;;;5071977;28;20109;-81
2021/12/28 00:51:10;;;;;;;14.38;10.88;;;4.40;99.90;;;;;;5072265;28;20058;-81
2021/12/28 00:53:37;;;;;;;16.23;11.02;;;4.30;99.90;;;;;;5054374;28;20515;-81
2021/12/28 00:56:04;;;;;;;15.02;10.38;;;4.30;99.90;;;;;;5054521;28;20063;-82
2021/12/28 00:58:32;;;;;;;13.93;11.13;;;4.30;99.90;;;;;;5056262;28;20131;-80
2021/12/28 01:00:59;;;;;;;14.60;10.57;;;4.40;99.90;;;;;;5058029;28;20131;-81
2021/12/28 01:03:26;;;;;;;15.57;10.95;;;4.40;99.90;;;;;;5058048;28;20466;-81
2021/12/28 01:05:52;;;;;;;13.85;9.88;;;4.40;99.90;;;;;;5057885;28;20127;-81
2021/12/28 01:08:19;;;;;;;14.77;9.65;;;4.40;99.90;;;;;;5075751;28;20412;-80
2021/12/28 01:10:50;;;;;;;13.73;10.45;;;4.40;99.90;;;;;;5058046;28;20080;-81
2021/12/28 01:13:18;;;;;;;14.43;10.27;;;4.30;99.90;;;;;;5057829;28;20496;-81
2021/12/28 01:15:45;;;;;;;13.85;9.48;;;4.30;99.90;;;;;;5075462;28;20048;-80
2021/12/28 01:18:12;;;;;;;13.73;9.65;;;4.30;99.90;;;;;;5075537;28;20087;-81
2021/12/28 01:20:41;;;;;;;14.00;9.70;;;4.20;99.90;;;;;;5057588;28;20131;-81
2021/12/28 01:23:08;;;;;;;11.40;9.05;;;4.20;99.90;;;;;;5057755;28;20471;-81
2021/12/28 01:25:36;;;;;;;11.30;9.10;;;4.20;99.90;;;;;;5075115;28;20059;-81
2021/12/28 01:28:04;;;;;;;11.55;8.80;;;4.20;99.90;;;;;;5075436;28;20045;-81
2021/12/28 01:30:32;;;;;;;9.73;7.93;;;4.20;99.90;;;;;;5075295;28;20128;-81
2021/12/28 01:33:00;;;;;;;11.30;8.55;;;4.20;99.90;;;;;;5075336;28;20125;-81
2021/12/28 01:35:29;;;;;;;12.18;8.43;;;4.20;99.90;;;;;;5057409;28;20131;-81
2021/12/28 01:37:57;;;;;;;9.63;7.65;;;4.20;99.90;;;;;;5075379;28;20480;-80
2021/12/28 01:40:29;;;;;;;8.90;7.68;;;4.20;99.90;;;;;;5057451;28;20495;-81
2021/12/28 01:43:01;;;;;;;8.60;7.10;;;4.20;99.90;;;;;;5057229;28;20135;-80
2021/12/28 01:45:45;;;;;;;8.80;7.07;;;4.30;99.90;;;;;;5057246;28;20511;-81
2021/12/28 01:48:21;;;;;;;10.73;7.93;;;4.30;99.90;;;;;;5057248;28;20044;-80
2021/12/28 01:50:51;;;;;;;8.73;7.32;;;4.30;99.90;;;;;;5075457;28;20476;-81
2021/12/28 01:53:18;;;;;;;9.68;7.22;;;4.30;99.90;;;;;;5075386;28;20044;-80
2021/12/28 01:55:48;;;;;;;8.75;7.25;;;4.30;99.90;;;;;;5057663;28;20497;-81
2021/12/28 01:58:15;;;;;;;8.30;6.80;;;4.40;99.90;;;;;;5057654;28;20127;-81
2021/12/28 02:00:44;;;;;;;9.20;7.65;;;4.40;99.90;;;;;;5058018;28;20075;-81
2021/12/28 02:03:15;;;;;;;9.55;7.40;;;4.50;99.90;;;;;;5057849;28;20053;-80
2021/12/28 02:05:42;;;;;;;8.25;7.00;;;4.50;99.90;;;;;;5057879;28;20066;-80
2021/12/28 02:08:12;;;;;;;9.32;7.53;;;4.50;99.90;;;;;;5057311;28;20075;-81
2021/12/28 02:10:40;;;;;;;9.27;7.25;;;4.50;99.90;;;;;;5057056;28;20135;-81
2021/12/28 02:13:08;;;;;;;8.27;6.90;;;4.50;99.90;;;;;;5057749;28;20132;-81
2021/12/28 02:15:35;;;;;;;8.70;6.90;;;4.50;99.90;;;;;;5057083;28;20139;-80
2021/12/28 02:18:05;;;;;;;10.32;7.22;;;4.40;99.90;;;;;;5074893;28;20049;-81
2021/12/28 02:20:33;;;;;;;9.30;7.60;;;4.40;99.90;;;;;;5056879;28;20095;-81
2021/12/28 02:22:59;;;;;;;8.10;7.03;;;4.40;99.90;;;;;;5075391;28;20139;-82
2021/12/28 02:25:26;;;;;;;9.75;7.32;;;4.30;99.90;;;;;;5056923;28;20107;-81
2021/12/28 02:27:53;;;;;;;11.48;8.02;;;4.30;99.90;;;;;;5057332;28;20055;-81
2021/12/28 02:30:21;;;;;;;8.25;6.93;;;4.20;99.90;;;;;;5074472;28;20557;-81
2021/12/28 02:32:50;;;;;;;8.80;7.07;;;4.10;99.90;;;;;;5075094;28;20553;-80
2021/12/28 02:35:20;;;;;;;8.73;6.35;;;4.10;99.90;;;;;;5057227;28;20040;-82
2021/12/28 02:37:49;;;;;;;7.65;6.13;;;4.00;99.90;;;;;;5056844;28;20087;-81
2021/12/28 02:40:18;;;;;;;7.22;5.88;;;4.00;99.90;;;;;;5057412;28;20135;-81
2021/12/28 02:42:45;;;;;;;8.25;5.38;;;4.00;99.90;;;;;;5057117;28;20416;-82
2021/12/28 02:45:18;;;;;;;5.68;5.10;;;4.10;99.90;;;;;;5075247;28;20087;-81
2021/12/28 02:47:46;;;;;;;5.53;4.97;;;4.00;99.90;;;;;;5074677;28;20526;-80
2021/12/28 02:50:20;;;;;;;6.05;5.18;;;4.00;99.90;;;;;;5075044;28;20108;-81
2021/12/28 02:52:47;;;;;;;6.05;5.07;;;4.00;99.90;;;;;;5056801;28;20078;-82
2021/12/28 02:55:16;;;;;;;6.05;4.78;;;4.00;99.90;;;;;;5074436;28;20135;-82
2021/12/28 02:57:56;;;;;;;5.50;4.47;;;4.00;99.90;;;;;;5056839;28;20045;-81
2021/12/28 03:00:36;;;;;;;4.80;4.40;;;3.80;99.90;;;;;;5056666;28;20128;-81
2021/12/28 03:03:06;;;;;;;7.13;4.07;;;3.80;99.90;;;;;;5056150;28;20044;-81
2021/12/28 03:05:37;;;;;;;3.95;3.65;;;3.80;99.90;;;;;;5073810;28;20181;-81
2021/12/28 03:08:05;;;;;;;3.72;3.30;;;3.70;99.90;;;;;;5056330;28;20071;-81
2021/12/28 03:10:32;;;;;;;4.05;3.65;;;3.70;99.90;;;;;;5056051;28;20044;-81
2021/12/28 03:12:59;;;;;;;3.30;3.03;;;3.60;99.90;;;;;;5056557;28;20048;-82
2021/12/28 03:15:26;;;;;;;3.75;3.38;;;3.60;99.90;;;;;;5056231;28;20574;-81
2021/12/28 03:17:53;;;;;;;3.50;3.25;;;3.60;99.90;;;;;;5056061;28;20135;-81
2021/12/28 03:20:19;;;;;;;3.65;3.35;;;3.60;99.90;;;;;;5073652;28;20095;-81
2021/12/28 03:22:46;;;;;;;3.08;2.85;;;3.80;99.90;;;;;;5073777;28;20063;-82
2021/12/28 03:25:13;;;;;;;3.00;2.80;;;3.90;99.90;;;;;;5056063;28;20127;-81
2021/12/28 03:27:41;;;;;;;3.00;2.80;;;3.90;99.90;;;;;;5073300;28;20059;-82
2021/12/28 03:30:11;;;;;;;2.85;2.65;;;3.90;99.90;;;;;;5073432;28;20080;-81
2021/12/28 03:32:38;;;;;;;2.75;2.55;;;3.90;99.90;;;;;;5055703;28;20087;-82
2021/12/28 03:35:08;;;;;;;2.65;2.45;;;4.00;99.90;;;;;;5073472;28;20079;-81
2021/12/28 03:37:35;;;;;;;2.60;2.40;;;4.00;99.90;;;;;;5073191;28;20183;-81
2021/12/28 03:40:06;;;;;;;2.35;2.22;;;4.00;99.90;;;;;;5055455;28;20076;-81
2021/12/28 03:42:33;;;;;;;3.38;2.45;;;4.00;99.90;;;;;;5073727;28;20048;-82
2021/12/28 03:45:00;;;;;;;2.03;1.92;;;4.00;99.90;;;;;;5073143;28;20084;-81
2021/12/28 03:47:27;;;;;;;2.33;2.22;;;4.00;99.90;;;;;;5054855;28;20044;-81
2021/12/28 03:49:58;;;;;;;2.67;2.47;;;3.90;99.90;;;;;;5073117;28;20055;-81
2021/12/28 03:52:28;;;;;;;2.25;2.15;;;3.90;99.90;;;;;;5055653;28;20041;-81
2021/12/28 03:54:55;;;;;;;2.45;2.35;;;3.90;99.90;;;;;;5055300;28;20094;-81
2021/12/28 03:57:22;;;;;;;2.80;2.38;;;4.00;99.90;;;;;;5055143;28;20132;-82
2021/12/28 03:59:48;;;;;;;2.55;2.35;;;4.00;99.90;;;;;;5055273;28;20131;-82
2021/12/28 04:02:15;;;;;;;1.63;1.52;;;4.00;99.90;;;;;;5073121;28;20090;-81
2021/12/28 04:04:42;;;;;;;2.40;2.17;;;4.10;99.90;;;;;;5072742;28;20052;-81
2021/12/28 04:07:13;;;;;;;2.40;2.20;;;4.10;99.90;;;;;;5054671;28;20055;-82
2021/12/28 04:12:19;;;;;;;2.25;2.05;;;4.20;99.90;;;;;;5072646;28;20127;-81
2021/12/28 04:14:46;;;;;;;2.28;2.17;;;4.20;99.90;;;;;;5072443;28;20153;-81
2021/12/28 04:17:13;;;;;;;2.20;2.10;;;4.10;99.90;;;;;;5054699;28;20080;-81
2021/12/28 04:19:40;;;;;;;2.33;2.10;;;4.10;99.90;;;;;;5054922;28;20140;-82
2021/12/28 04:22:07;;;;;;;2.28;2.08;;;4.00;99.90;;;;;;5054727;28;20079;-82
2021/12/28 04:24:34;;;;;;;2.50;2.30;;;4.00;99.90;;;;;;5072438;28;20128;-81
2021/12/28 04:27:20;;;;;;;2.10;2.00;;;3.90;99.90;;;;;;5072239;28;20051;-81
2021/12/28 04:29:47;;;;;;;2.33;2.22;;;4.00;99.90;;;;;;5054569;28;20504;-81
2021/12/28 04:32:14;;;;;;;2.35;2.15;;;3.90;99.90;;;;;;5072359;28;20063;-82
2021/12/28 04:34:41;;;;;;;3.95;2.47;;;4.00;99.90;;;;;;5076765;28;20059;-81
2021/12/28 04:37:08;;;;;;;2.28;2.00;;;4.00;99.90;;;;;;5058581;28;20467;-81
2021/12/28 04:39:36;;;;;;;2.50;2.30;;;4.00;99.90;;;;;;5076226;28;20118;-81
2021/12/28 04:42:03;;;;;;;7.25;4.38;;;3.90;99.90;;;;;;5058482;28;20083;-81
2021/12/28 04:44:30;;;;;;;4.90;4.40;;;4.00;99.90;;;;;;5058519;28;20198;-81
2021/12/28 04:46:57;;;;;;;7.50;5.15;;;4.10;99.90;;;;;;5058621;28;20044;-81
2021/12/28 04:49:26;;;;;;;8.35;5.30;;;4.20;99.90;;;;;;5058490;28;20128;-81
2021/12/28 04:51:53;;;;;;;7.78;5.50;;;4.20;99.90;;;;;;5058387;28;20041;-81
2021/12/28 04:54:20;;;;;;;6.78;4.95;;;4.30;99.90;;;;;;5075913;28;20488;-81
2021/12/28 04:56:47;;;;;;;5.47;4.90;;;4.30;99.90;;;;;;5058194;28;20152;-81
2021/12/28 04:59:16;;;;;;;6.88;5.80;;;4.30;99.90;;;;;;5058415;28;20059;-81
2021/12/28 05:01:44;;;;;;;6.95;6.15;;;4.40;99.90;;;;;;5058131;28;20052;-81
2021/12/28 05:04:11;;;;;;;11.02;6.75;;;4.30;99.90;;;;;;5058184;28;20121;-81
2021/12/28 05:06:39;;;;;;;10.38;6.07;;;4.30;99.90;;;;;;5075501;28;20063;-81
2021/12/28 05:09:11;;;;;;;6.72;5.30;;;4.30;99.90;;;;;;5058046;28;20446;-81
2021/12/28 05:11:39;;;;;;;5.65;4.45;;;4.30;99.90;;;;;;5075827;28;20119;-82
2021/12/28 05:14:06;;;;;;;7.60;4.97;;;4.40;99.90;;;;;;5075765;28;20124;-81
2021/12/28 05:16:34;;;;;;;8.07;5.82;;;4.30;99.90;;;;;;5057992;28;20159;-81
2021/12/28 05:19:03;;;;;;;7.82;5.65;;;4.40;99.90;;;;;;5057966;28;20045;-81
2021/12/28 05:21:31;;;;;;;8.77;6.05;;;4.30;99.90;;;;;;5075313;28;20047;-81
2021/12/28 05:23:58;;;;;;;7.72;4.15;;;4.30;99.90;;;;;;5075556;28;20108;-81
2021/12/28 05:26:24;;;;;;;4.13;3.72;;;4.10;99.90;;;;;;5075235;28;20132;-82
2021/12/28 05:28:52;;;;;;;9.35;5.00;;;4.20;99.90;;;;;;5057969;28;20050;-81
2021/12/28 05:31:19;;;;;;;5.97;3.95;;;4.30;99.90;;;;;;5075528;28;20131;-81
2021/12/28 05:33:46;;;;;;;8.43;5.57;;;4.30;99.90;;;;;;5057954;28;20139;-82
2021/12/28 05:36:13;;;;;;;12.00;7.70;;;4.30;99.90;;;;;;5075056;28;20144;-81
2021/12/28 05:38:39;;;;;;;15.35;8.95;;;4.20;99.90;;;;;;5057216;28;20498;-82
2021/12/28 05:41:06;;;;;;;20.88;9.07;;;4.10;99.90;;;;;;5057665;28;20056;-81
2021/12/28 05:43:33;;;;;;;14.75;7.53;;;4.20;99.90;;;;;;5074801;28;20576;-82
2021/12/28 05:46:00;;;;;;;13.18;7.43;;;4.20;99.90;;;;;;5075051;28;20055;-81
2021/12/28 05:48:27;;;;;;;13.70;8.18;;;4.30;99.90;;;;;;5074867;28;20047;-81
2021/12/28 05:50:54;;;;;;;14.48;8.10;;;4.30;99.90;;;;;;5057103;28;20511;-81
2021/12/28 05:53:20;;;;;;;10.80;7.65;;;4.30;99.90;;;;;;5057312;28;20127;-81
2021/12/28 05:55:47;;;;;;;11.77;7.22;;;4.40;99.90;;;;;;5057417;28;20616;-81
2021/12/28 05:58:14;;;;;;;14.30;8.30;;;4.30;99.90;;;;;;5075013;28;20056;-82
2021/12/28 06:00:41;;;;;;;24.52;12.50;;;4.40;99.90;;;;;;5074693;28;20162;-81
2021/12/28 06:03:08;;;;;;;11.70;7.72;;;4.30;99.90;;;;;;5056949;28;20106;-81
2021/12/28 06:05:35;;;;;;;12.68;7.88;;;4.40;99.90;;;;;;5056873;28;20075;-81
2021/12/28 06:08:02;;;;;;;11.90;7.72;;;4.40;99.90;;;;;;5057020;28;20147;-82
2021/12/28 06:10:43;;;;;;;13.85;8.30;;;4.40;99.90;;;;;;5075035;28;20474;-81
2021/12/28 06:13:10;;;;;;;15.13;8.25;;;4.50;99.90;;;;;;5056829;28;20131;-81
2021/12/28 06:15:37;;;;;;;16.85;8.77;;;4.50;99.90;;;;;;5056487;28;20095;-81
2021/12/28 06:18:03;;;;;;;12.88;7.97;;;4.50;99.90;;;;;;5074569;28;20052;-81
2021/12/28 06:20:30;;;;;;;13.43;8.63;;;4.60;99.90;;;;;;5074496;28;20193;-81
2021/12/28 06:22:57;;;;;;;14.30;8.27;;;4.60;99.90;;;;;;5057046;28;20052;-82
2021/12/28 06:25:24;;;;;;;16.85;9.10;;;4.70;99.90;;;;;;5056459;28;20084;-81
2021/12/28 06:27:50;;;;;;;15.68;8.25;;;4.70;99.90;;;;;;5056449;28;20127;-81
2021/12/28 06:30:17;;;;;;;17.20;8.27;;;4.70;99.90;;;;;;5056426;28;20564;-81
2021/12/28 06:32:44;;;;;;;20.15;9.30;;;4.70;99.90;;;;;;5056557;28;20223;-81
2021/12/28 06:35:11;;;;;;;17.10;8.75;;;4.60;99.90;;;;;;5056516;28;20128;-82
2021/12/28 06:37:38;;;;;;;15.75;8.20;;;4.60;99.90;;;;;;5056423;28;20152;-82
2021/12/28 06:40:08;;;;;;;14.07;8.23;;;4.60;99.90;;;;;;5073969;28;20567;-81
2021/12/28 06:42:35;;;;;;;15.43;8.63;;;4.60;99.90;;;;;;5074258;28;20100;-80
2021/12/28 06:45:03;;;;;;;16.90;8.32;;;4.60;99.90;;;;;;5073854;28;20094;-81
2021/12/28 06:47:30;;;;;;;18.42;8.70;;;4.50;99.90;;;;;;5073681;28;20076;-81
2021/12/28 06:49:57;;;;;;;17.20;8.32;;;4.60;99.90;;;;;;5056119;28;20135;-81
2021/12/28 06:52:24;;;;;;;13.80;7.97;;;4.60;99.90;;;;;;5055982;28;20135;-82
2021/12/28 06:54:52;;;;;;;12.85;7.25;;;4.60;99.90;;;;;;5056431;28;20470;-82
2021/12/28 06:57:21;;;;;;;13.15;7.07;;;4.60;99.90;;;;;;5073176;28;20531;-81
2021/12/28 06:59:48;;;;;;;15.38;7.75;;;4.60;99.90;;;;;;5056074;28;20470;-80
2021/12/28 07:02:16;;;;;;;13.75;7.00;;;4.70;99.90;;;;;;5055991;28;20091;-81
2021/12/28 07:04:44;;;;;;;13.63;7.55;;;4.70;99.90;;;;;;5056382;28;20070;-82
2021/12/28 07:07:12;;;;;;;13.32;8.02;;;4.70;99.90;;;;;;5073411;28;20136;-82
2021/12/28 07:09:39;;;;;;;13.15;7.18;;;4.80;99.90;;;;;;5073260;28;20552;-81
2021/12/28 07:12:06;;;;;;;14.25;7.93;;;4.80;99.90;;;;;;5073474;28;20120;-80
2021/12/28 07:14:33;;;;;;;14.05;9.70;;;4.80;99.90;;;;;;5055591;28;20476;-81
2021/12/28 07:17:00;;;;;;;15.13;9.23;;;4.60;99.90;;;;;;5055644;28;20045;-82
2021/12/28 07:19:27;;;;;;;14.80;9.27;;;4.60;99.90;;;;;;5055707;28;20048;-82
2021/12/28 07:21:54;;;;;;;15.20;8.27;;;4.60;99.90;;;;;;5073393;28;20051;-82
2021/12/28 07:24:21;;;;;;;11.23;7.40;;;4.60;99.90;;;;;;5056206;28;20044;-81
2021/12/28 07:26:47;;;;;;;11.52;6.88;;;4.60;99.90;;;;;;5055567;28;20044;-82
2021/12/28 07:29:14;;;;;;;9.90;6.53;;;4.60;99.90;;;;;;5056104;28;20094;-82
2021/12/28 07:31:41;;;;;;;13.70;6.32;;;4.60;99.90;;;;;;5074799;28;20079;-81
2021/12/28 07:34:08;;;;;;;8.30;6.28;;;4.60;99.90;;;;;;5074075;28;20094;-82
2021/12/28 07:36:35;;;;;;;11.57;6.43;;;4.60;99.90;;;;;;5073013;28;20048;-82
2021/12/28 07:39:04;;;;;;;18.02;11.85;;;4.50;99.90;;;;;;5055882;28;20052;-81
2021/12/28 07:41:32;;;;;;;15.00;7.22;;;4.60;99.90;;;;;;5055735;28;20505;-81
2021/12/28 07:43:59;;;;;;;12.60;6.90;;;4.60;99.90;;;;;;5073412;28;20139;-82
2021/12/28 07:46:26;;;;;;;14.52;6.82;;;4.70;99.90;;;;;;5055807;28;20059;-81
2021/12/28 07:48:52;;;;;;;13.57;6.82;;;4.70;99.90;;;;;;5074053;28;20048;-82
2021/12/28 07:51:19;;;;;;;8.90;6.13;;;4.70;99.90;;;;;;5056763;28;20119;-82
2021/12/28 07:53:46;;;;;;;8.50;5.70;;;4.70;99.90;;;;;;5056705;28;20116;-82
2021/12/28 07:56:12;;;;;;;14.07;6.93;;;4.70;99.90;;;;;;5073625;28;20152;-82
2021/12/28 07:58:44;;;;;;;6.90;5.80;;;4.70;99.90;;;;;;5056978;28;20136;-82
2021/12/28 08:01:11;;;;;;;10.65;5.90;;;4.80;99.90;;;;;;5073836;28;20057;-82
2021/12/28 08:03:38;;;;;;;9.32;6.13;;;4.70;99.90;;;;;;5073473;28;20102;-81
2021/12/28 08:06:05;;;;;;;9.55;6.45;;;4.80;99.90;;;;;;5073442;28;20139;-81
2021/12/28 08:08:31;;;;;;;10.23;6.32;;;4.80;99.90;;;;;;5073676;28;20139;-82
2021/12/28 08:10:58;;;;;;;9.48;6.55;;;4.80;99.90;;;;;;5056205;28;20044;-82
2021/12/28 08:13:25;;;;;;;9.93;6.82;;;4.80;99.90;;;;;;5073454;28;20131;-81
2021/12/28 08:15:52;;;;;;;12.23;6.72;;;4.80;99.90;;;;;;5055415;28;20127;-82
2021/12/28 08:18:19;;;;;;;9.15;6.00;;;4.80;99.90;;;;;;5055834;28;20048;-80
2021/12/28 08:20:46;;;;;;;12.93;6.40;;;4.80;99.90;;;;;;5055887;28;20079;-82
2021/12/28 08:23:13;;;;;;;9.65;6.72;;;4.80;99.90;;;;;;5055259;28;20127;-82
2021/12/28 08:25:40;;;;;;;11.10;6.05;;;4.80;99.90;;;;;;5072631;28;20483;-82
2021/12/28 08:28:07;;;;;;;8.70;6.38;;;4.80;99.90;;;;;;5055461;28;20148;-81
2021/12/28 08:30:36;;;;;;;7.90;5.93;;;4.80;99.90;;;;;;5054897;28;20422;-81
2021/12/28 08:33:04;;;;;;;11.95;7.32;;;4.70;99.90;;;;;;5054745;28;20476;-82
2021/12/28 08:35:31;;;;;;;8.35;5.38;;;4.70;99.90;;;;;;5055156;28;20470;-82
2021/12/28 08:37:58;;;;;;;11.52;6.95;;;4.70;99.90;;;;;;5055288;28;20151;-82
2021/12/28 08:40:25;;;;;;;11.45;6.15;;;4.80;99.90;;;;;;5073121;28;20044;-81
2021/12/28 08:42:52;;;;;;;11.18;6.43;;;4.80;99.90;;;;;;5055524;28;20083;-82
2021/12/28 08:45:19;;;;;;;9.48;5.93;;;4.70;99.90;;;;;;5055626;28;20128;-82
2021/12/28 08:47:49;;;;;;;10.35;5.50;;;4.80;99.90;;;;;;5073256;28;20052;-82
2021/12/28 08:50:17;;;;;;;9.55;5.70;;;4.80;99.90;;;;;;5055599;28;20132;-81
2021/12/28 08:52:44;;;;;;;8.48;5.13;;;4.80;99.90;;;;;;5073340;28;20123;-81
2021/12/28 08:55:18;;;;;;;7.47;5.25;;;4.80;99.90;;;;;;5072639;28;20090;-81
2021/12/28 08:57:46;;;;;;;8.15;5.30;;;4.80;99.90;;;;;;5055170;28;20080;-81
2021/12/28 09:00:20;;;;;;;7.65;5.40;;;4.80;99.90;;;;;;5055455;28;20049;-82
2021/12/28 09:02:47;;;;;;;9.57;6.78;;;4.80;99.90;;;;;;5055472;28;20105;-83
2021/12/28 09:05:14;;;;;;;11.85;7.10;;;4.80;99.90;;;;;;5055886;28;20423;-82
2021/12/28 09:07:41;;;;;;;12.02;7.10;;;4.80;99.90;;;;;;5055663;28;20135;-80
2021/12/28 09:10:08;;;;;;;9.90;6.10;;;4.90;99.90;;;;;;5073574;28;20136;-82
2021/12/28 09:12:34;;;;;;;7.65;4.93;;;4.90;99.90;;;;;;5055723;28;20083;-82
2021/12/28 09:15:02;;;;;;;7.28;5.00;;;4.90;99.90;;;;;;5073612;28;20123;-82
2021/12/28 09:17:29;;;;;;;7.68;5.68;;;5.00;99.90;;;;;;5055679;28;20568;-81
2021/12/28 09:19:55;;;;;;;9.80;6.00;;;5.00;99.90;;;;;;5058212;28;20508;-80
2021/12/28 09:22:22;;;;;;;6.53;4.97;;;5.00;99.90;;;;;;5058790;28;20513;-81
2021/12/28 09:24:49;;;;;;;8.30;5.80;;;5.00;99.90;;;;;;5076609;28;20477;-82
2021/12/28 09:27:17;;;;;;;8.30;4.70;;;5.00;99.90;;;;;;5076299;28;20044;-81
2021/12/28 09:29:44;;;;;;;8.45;5.28;;;5.10;99.90;;;;;;5076556;28;20044;-81
2021/12/28 09:32:16;;;;;;;9.80;5.25;;;5.00;99.90;;;;;;5059267;28;20051;-82
2021/12/28 09:34:45;;;;;;;8.90;5.38;;;4.90;99.90;;;;;;5076328;28;20048;-82
2021/12/28 09:37:13;;;;;;;6.82;4.85;;;4.80;99.90;;;;;;5058240;28;20122;-82
2021/12/28 09:39:40;;;;;;;9.85;5.85;;;4.70;99.90;;;;;;5058043;28;20052;-82
2021/12/28 09:42:07;;;;;;;5.90;5.07;;;4.70;99.90;;;;;;5075604;28;20135;-82
2021/12/28 09:44:35;;;;;;;7.32;5.15;;;4.70;99.90;;;;;;5075650;28;20082;-81
2021/12/28 09:47:04;;;;;;;6.40;4.65;;;4.70;99.90;;;;;;5057461;28;20522;-82
2021/12/28 09:49:32;;;;;;;5.05;3.92;;;4.80;99.90;;;;;;5057664;28;20104;-81
2021/12/28 09:52:01;;;;;;;4.97;4.45;;;4.80;99.90;;;;;;5057527;28;20541;-82
2021/12/28 09:54:28;;;;;;;6.32;4.35;;;5.00;99.90;;;;;;5057422;28;20084;-82
2021/12/28 09:56:59;;;;;;;4.53;4.03;;;5.10;99.90;;;;;;5057351;28;20056;-81
2021/12/28 09:59:28;;;;;;;3.58;3.28;;;5.40;99.90;;;;;;5075851;28;20052;-82
2021/12/28 10:01:55;;;;;;;3.53;3.22;;;5.60;99.90;;;;;;5057990;28;20052;-82
2021/12/28 10:04:22;;;;;;;4.03;3.47;;;5.80;99.90;;;;;;5075486;28;20075;-82
2021/12/28 10:06:49;;;;;;;3.38;3.00;;;5.90;99.90;;;;;;5057605;28;20059;-82
2021/12/28 10:09:19;;;;;;;5.30;4.18;;;5.90;99.90;;;;;;5057547;28;20532;-81
2021/12/28 10:11:53;;;;;;;7.43;6.72;;;5.80;99.90;;;;;;5075514;28;20049;-82
2021/12/28 10:14:21;;;;;;;3.65;3.35;;;5.90;99.90;;;;;;5074926;28;20045;-82
2021/12/28 10:16:52;;;;;;;15.13;11.15;;;6.00;99.90;;;;;;5056983;28;20052;-82
2021/12/28 10:19:40;;;;;;;6.53;5.47;;;5.80;99.90;;;;;;5074615;28;20088;-82
2021/12/28 10:22:29;;;;;;;3.13;2.83;;;6.00;99.90;;;;;;5057203;28;20049;-82
2021/12/28 10:24:58;;;;;;;5.10;3.00;;;6.10;99.90;;;;;;5056820;28;20048;-82
2021/12/28 10:27:26;;;;;;;2.90;2.63;;;6.20;99.90;;;;;;5056405;28;20091;-81
2021/12/28 10:29:54;;;;;;;2.63;2.45;;;6.30;99.90;;;;;;5056312;28;20568;-82
2021/12/28 10:32:24;;;;;;;2.60;2.40;;;6.40;99.90;;;;;;5055738;28;20125;-82
2021/12/28 10:34:57;;;;;;;2.72;2.53;;;6.60;99.90;;;;;;5074588;28;20055;-81
2021/12/28 10:37:29;;;;;;;2.45;2.20;;;6.80;99.90;;;;;;5056725;28;20044;-81
2021/12/28 10:39:58;;;;;;;2.95;2.65;;;6.90;99.90;;;;;;5074373;28;20573;-81
2021/12/28 10:42:45;;;;;;;2.13;1.95;;;6.90;99.90;;;;;;5074205;28;20123;-82
2021/12/28 10:45:16;;;;;;;2.47;2.28;;;6.90;99.90;;;;;;5056500;28;20143;-82
2021/12/28 10:47:44;;;;;;;2.10;2.00;;;6.80;99.90;;;;;;5056734;28;20131;-81
2021/12/28 10:50:28;;;;;;;2.60;2.42;;;6.70;99.90;;;;;;5073706;28;20127;-82
2021/12/28 10:53:18;;;;;;;2.60;2.40;;;6.60;99.90;;;;;;5056455;28;20079;-81
2021/12/28 10:55:57;;;;;;;2.55;2.35;;;6.50;99.90;;;;;;5056118;28;20131;-82
2021/12/28 10:58:32;;;;;;;2.25;2.15;;;6.50;99.90;;;;;;5056023;28;20131;-82
2021/12/28 11:01:06;;;;;;;3.10;2.90;;;6.60;99.90;;;;;;5056390;28;20147;-82
2021/12/28 11:03:35;;;;;;;3.45;3.15;;;6.60;99.90;;;;;;5058900;28;20116;-82
2021/12/28 11:06:29;;;;;;;3.80;3.45;;;6.60;99.90;;;;;;5061208;28;20052;-82
2021/12/28 11:09:06;;;;;;;2.55;2.40;;;6.60;99.90;;;;;;5065175;28;20131;-82
2021/12/28 11:11:34;;;;;;;2.70;2.50;;;6.50;99.90;;;;;;5055931;28;20457;-81
2021/12/28 11:14:04;;;;;;;2.72;2.53;;;6.50;99.90;;;;;;5055853;28;20469;-81
2021/12/28 11:16:32;;;;;;;2.60;2.40;;;6.50;99.90;;;;;;5073408;28;20047;-81
2021/12/28 11:19:03;;;;;;;2.60;2.40;;;6.50;99.90;;;;;;5073695;28;20135;-82
2021/12/28 11:21:33;;;;;;;2.30;2.20;;;6.50;99.90;;;;;;5055445;28;20056;-81
2021/12/28 11:24:13;;;;;;;2.80;2.60;;;6.60;99.90;;;;;;5055442;28;20135;-80
2021/12/28 11:26:46;;;;;;;2.60;2.40;;;6.60;99.90;;;;;;5073422;28;20052;-81
2021/12/28 11:29:20;;;;;;;2.40;2.20;;;6.60;99.90;;;;;;5073417;28;20227;-81
2021/12/28 11:31:58;;;;;;;2.58;2.38;;;6.60;99.90;;;;;;5055846;28;20055;-82
2021/12/28 11:34:28;;;;;;;2.45;2.13;;;6.60;99.90;;;;;;5055322;28;20052;-81
2021/12/28 11:36:58;;;;;;;2.42;2.33;;;6.50;99.90;;;;;;5073127;28;20128;-81
2021/12/28 11:39:35;;;;;;;2.53;2.38;;;6.50;99.90;;;;;;5056264;28;20064;-81
2021/12/28 11:42:03;;;;;;;2.58;2.38;;;6.60;99.90;;;;;;5055340;28;20127;-81
2021/12/28 11:44:30;;;;;;;2.40;2.20;;;6.80;99.90;;;;;;5055545;28;20079;-80
2021/12/28 11:47:00;;;;;;;3.42;1.88;;;6.90;99.90;;;;;;5055323;28;20173;-81
2021/12/28 11:49:28;;;;;;;1.80;1.70;;;7.00;99.90;;;;;;5073151;28;20048;-81
2021/12/28 11:51:58;;;;;;;1.60;1.50;;;7.10;99.90;;;;;;5055262;28;20044;-80
2021/12/28 11:54:27;;;;;;;3.05;1.40;;;7.10;99.90;;;;;;5055879;28;20128;-80
2021/12/28 11:57:00;;;;;;;1.58;1.48;;;7.20;99.90;;;;;;5072820;28;20062;-81
2021/12/28 11:59:28;;;;;;;1.80;1.50;;;7.10;99.90;;;;;;5055416;28;20131;-81
2021/12/28 12:02:11;;;;;;;1.20;1.20;;;7.10;99.90;;;;;;5073068;28;20730;-81
2021/12/28 12:04:43;;;;;;;1.00;0.90;;;7.00;99.90;;;;;;5055429;28;20052;-81
2021/12/28 12:07:18;;;;;;;1.70;1.60;;;6.90;99.90;;;;;;5054972;28;20487;-81
2021/12/28 12:09:54;;;;;;;1.25;1.10;;;6.90;99.90;;;;;;5054865;28;20124;-81
2021/12/28 12:12:54;;;;;;;1.00;1.00;;;6.90;99.90;;;;;;5072770;28;20055;-81
2021/12/28 12:15:25;;;;;;;0.90;0.90;;;6.90;99.90;;;;;;5029502;28;20131;-81
2021/12/28 12:17:57;;;;;;;0.90;0.90;;;7.00;99.90;;;;;;5072654;28;20098;-81
2021/12/28 12:20:33;;;;;;;0.88;0.70;;;6.90;99.90;;;;;;5072562;28;20050;-82
2021/12/28 12:23:15;;;;;;;1.00;0.85;;;7.00;99.90;;;;;;5073207;28;20078;-82
2021/12/28 12:25:41;;;;;;;0.80;0.80;;;7.10;99.90;;;;;;5072704;28;20048;-81
2021/12/28 12:28:10;;;;;;;1.27;0.70;;;7.20;99.90;;;;;;5055088;28;20584;-80
2021/12/28 12:30:49;;;;;;;0.80;0.80;;;7.20;99.90;;;;;;5055074;28;20131;-81
2021/12/28 12:33:17;;;;;;;0.88;0.73;;;7.30;99.90;;;;;;5072491;28;20084;-80
2021/12/28 12:35:59;;;;;;;0.90;0.90;;;7.30;99.90;;;;;;5072582;28;20049;-82
2021/12/28 12:38:27;;;;;;;1.65;1.20;;;7.30;99.90;;;;;;5055046;28;20088;-82
2021/12/28 12:41:14;;;;;;;0.52;0.52;;;7.30;99.90;;;;;;5072682;28;20052;-82
2021/12/28 12:43:50;;;;;;;0.80;0.80;;;7.20;99.90;;;;;;5072822;28;20080;-81
2021/12/28 12:46:32;;;;;;;0.50;0.50;;;7.20;99.90;;;;;;5055088;28;20416;-82
2021/12/28 12:49:02;;;;;;;0.50;0.50;;;7.10;99.90;;;;;;5074457;28;20055;-82
2021/12/28 12:51:35;;;;;;;0.50;0.50;;;6.90;99.90;;;;;;5072954;28;20075;-81
2021/12/28 12:54:01;;;;;;;0.75;0.40;;;6.90;99.90;;;;;;5055976;28;20559;-81
2021/12/28 12:56:36;;;;;;;0.43;0.43;;;6.80;99.90;;;;;;5058263;28;20091;-81
2021/12/28 12:59:04;;;;;;;0.40;0.40;;;6.80;99.90;;;;;;5059172;28;20132;-81
2021/12/28 13:01:40;;;;;;;0.40;0.40;;;6.80;99.90;;;;;;5058386;28;20048;-81
2021/12/28 13:04:29;;;;;;;0.85;0.30;;;6.80;99.90;;;;;;5058516;28;20059;-81
2021/12/28 13:07:08;;;;;;;1.63;1.52;;;6.80;99.90;;;;;;5058239;28;20052;-81